Time;durP1;ratioP1;P1;durP2;ratioP2;P2;SDS_P1;SDS_P2;PMS_P1;PMS_P2;Temp;Humidity;BMP_temperature;BMP_pressure;BME280_temperature;BME280_humidity;BME280_pressure;Samples;Min_cycle;Max_cycle;Signal;HPM_P1;HPM_P2
2021/01/02 00:04:16;;;;;;;96.10;23.25;;;;;;;3.67;66.23;98926.13;10422504;28;20049;-53
2021/01/02 00:09:23;;;;;;;79.75;23.92;;;;;;;3.70;66.24;98938.09;10421420;28;20045;-59
2021/01/02 00:14:36;;;;;;;64.88;18.45;;;;;;;3.66;65.69;98929.69;10421586;28;20053;-54
2021/01/02 00:20:13;;;;;;;48.83;14.97;;;;;;;3.62;66.22;98925.59;10420485;28;20038;-55
2021/01/02 00:25:17;;;;;;;58.75;21.40;;;;;;;3.53;66.22;98943.59;10419770;28;20049;-55
2021/01/02 00:30:41;;;;;;;63.33;20.77;;;;;;;3.44;66.07;98935.50;10419270;28;20445;-55
2021/01/02 00:35:43;;;;;;;59.80;21.80;;;;;;;3.44;66.45;98940.69;10419859;28;20051;-54
2021/01/02 00:40:49;;;;;;;52.42;18.52;;;;;;;3.40;66.66;98928.03;10419464;28;20053;-55
2021/01/02 00:45:51;;;;;;;48.15;19.65;;;;;;;3.39;66.31;98915.97;10420105;28;20041;-56
2021/01/02 00:50:54;;;;;;;62.45;20.35;;;;;;;3.42;66.09;98910.56;10434190;28;20394;-56
2021/01/02 00:56:33;;;;;;;48.60;19.60;;;;;;;3.33;65.65;98916.41;10435572;28;20091;-56
2021/01/02 01:01:45;;;;;;;54.08;19.85;;;;;;;3.28;66.35;98915.88;10417020;28;20091;-56
2021/01/02 01:06:55;;;;;;;59.75;20.02;;;;;;;3.20;65.76;98912.03;10435339;28;20136;-57
2021/01/02 01:12:00;;;;;;;60.85;16.52;;;;;;;3.07;66.09;98918.97;10417862;28;20530;-62
2021/01/02 01:17:03;;;;;;;36.93;12.40;;;;;;;2.99;65.89;98931.63;10418532;28;20056;-54
2021/01/02 01:22:10;;;;;;;30.15;10.68;;;;;;;2.82;65.99;98922.34;10418828;28;20053;-55
2021/01/02 01:27:28;;;;;;;41.15;15.10;;;;;;;2.64;66.16;98924.38;10417733;28;20049;-53
2021/01/02 01:32:37;;;;;;;59.53;18.40;;;;;;;2.55;67.02;98909.41;10419188;28;20153;-54
2021/01/02 01:37:41;;;;;;;46.17;15.75;;;;;;;2.78;66.28;98909.69;10417852;28;20038;-55
2021/01/02 01:42:45;;;;;;;;;;;;;;;2.88;66.33;98900.34;10417573;28;20123;-56
2021/01/02 01:47:57;;;;;;;71.40;16.67;;;;;;;2.84;65.89;98909.28;10417053;28;20062;-55
2021/01/02 01:53:40;;;;;;;100.18;24.00;;;;;;;2.92;66.15;98918.22;10417181;28;20052;-56
2021/01/02 01:59:20;;;;;;;53.00;17.38;;;;;;;2.90;66.36;98908.88;10417737;28;20144;-54
2021/01/02 02:05:03;;;;;;;36.20;15.73;;;;;;;2.95;66.32;98891.22;10416119;28;20045;-57
2021/01/02 02:10:06;;;;;;;30.48;12.50;;;;;;;3.00;65.91;98899.53;10415904;28;20057;-55
2021/01/02 02:15:11;;;;;;;32.37;13.03;;;;;;;2.98;65.71;98916.97;10416599;28;20085;-55
2021/01/02 02:20:17;;;;;;;40.67;15.68;;;;;;;2.83;66.53;98910.19;10417359;28;20091;-56
2021/01/02 02:25:19;;;;;;;36.10;12.98;;;;;;;2.79;66.05;98914.78;10416823;28;20049;-55
2021/01/02 02:30:29;;;;;;;32.00;15.00;;;;;;;2.74;66.16;98901.25;10420590;28;20038;-58
2021/01/02 02:35:32;;;;;;;33.28;14.52;;;;;;;2.87;66.15;98888.31;10418701;28;20049;-56
2021/01/02 02:40:34;;;;;;;23.52;9.05;;;;;;;2.86;65.75;98897.03;10422120;28;20080;-55
2021/01/02 02:45:36;;;;;;;38.13;15.93;;;;;;;2.83;66.40;98877.28;10423128;28;20053;-55
2021/01/02 02:50:41;;;;;;;39.72;15.02;;;;;;;3.06;66.18;98883.53;10423343;28;20049;-56
2021/01/02 02:55:43;;;;;;;42.47;17.67;;;;;;;3.21;65.99;98882.50;10423273;28;20049;-54
2021/01/02 03:00:45;;;;;;;60.35;19.98;;;;;;;3.39;65.61;98884.78;10424090;28;20069;-58
2021/01/02 03:05:48;;;;;;;93.78;21.17;;;;;;;3.41;65.57;98888.09;10423014;28;20466;-58
2021/01/02 03:10:50;;;;;;;191.23;38.72;;;;;;;3.34;65.58;98887.69;10422203;28;20076;-56
2021/01/02 03:15:52;;;;;;;52.58;19.75;;;;;;;3.38;65.60;98888.31;10422026;28;20056;-54
2021/01/02 03:20:54;;;;;;;45.63;16.65;;;;;;;3.34;65.95;98897.25;10421954;28;20441;-55
2021/01/02 03:26:03;;;;;;;58.17;19.00;;;;;;;3.17;65.74;98894.06;10421857;28;20099;-55
2021/01/02 03:31:05;;;;;;;42.45;15.38;;;;;;;3.05;65.41;98888.81;10422617;28;20367;-55
2021/01/02 03:36:08;;;;;;;62.85;18.95;;;;;;;2.97;66.12;98889.34;10421487;28;20187;-55
2021/01/02 03:41:10;;;;;;;41.95;17.55;;;;;;;3.08;65.79;98886.03;10420994;28;20046;-55
2021/01/02 03:46:11;;;;;;;40.80;15.93;;;;;;;2.95;65.38;98884.25;10421140;28;20518;-54
2021/01/02 03:51:14;;;;;;;49.47;17.73;;;;;;;2.99;65.79;98882.31;10420443;28;20433;-54
2021/01/02 03:56:16;;;;;;;41.08;17.20;;;;;;;3.00;65.61;98889.16;10420313;28;20055;-56
2021/01/02 04:01:18;;;;;;;49.13;18.05;;;;;;;2.95;66.04;98897.22;10420542;28;20072;-55
2021/01/02 04:06:25;;;;;;;47.28;17.42;;;;;;;2.94;65.96;98897.34;10420323;28;20065;-56
2021/01/02 04:11:27;;;;;;;58.25;17.60;;;;;;;2.99;65.64;98897.88;10420826;28;20049;-58
2021/01/02 04:16:32;;;;;;;39.17;17.48;;;;;;;3.05;65.56;98896.63;10420090;28;20050;-52
2021/01/02 04:21:35;;;;;;;67.97;15.70;;;;;;;3.06;65.53;98899.13;10420241;28;20049;-60
2021/01/02 04:26:36;;;;;;;71.87;16.77;;;;;;;2.96;65.73;98906.72;10422715;28;20151;-54
2021/01/02 04:31:40;;;;;;;73.28;17.58;;;;;;;2.86;66.21;98908.22;10419373;28;20479;-55
2021/01/02 04:36:42;;;;;;;82.28;21.08;;;;;;;2.82;65.74;98904.19;10420779;28;20050;-55
2021/01/02 04:41:44;;;;;;;50.90;17.00;;;;;;;2.70;66.47;98903.22;10420561;28;20100;-58
2021/01/02 04:46:46;;;;;;;45.72;15.48;;;;;;;2.51;66.54;98902.75;10420627;28;20052;-55
2021/01/02 04:51:48;;;;;;;40.65;14.98;;;;;;;2.40;67.58;98895.69;10418809;28;20061;-55
2021/01/02 04:56:50;;;;;;;38.95;13.85;;;;;;;2.41;67.38;98901.72;10419324;28;20045;-55
2021/01/02 05:01:53;;;;;;;34.10;14.43;;;;;;;2.43;67.24;98903.28;10417610;28;20064;-55
2021/01/02 05:06:55;;;;;;;34.78;11.85;;;;;;;2.39;67.92;98901.78;10418677;28;20057;-54
2021/01/02 05:11:57;;;;;;;26.80;12.23;;;;;;;2.38;67.56;98902.72;10418971;28;20049;-57
2021/01/02 05:16:58;;;;;;;29.70;11.73;;;;;;;2.39;68.04;98903.56;10417483;28;20510;-54
2021/01/02 05:22:01;;;;;;;30.05;13.50;;;;;;;2.34;68.56;98905.59;10417128;28;20140;-52
2021/01/02 05:27:02;;;;;;;32.50;13.10;;;;;;;2.37;68.24;98895.03;10417019;28;20053;-54
2021/01/02 05:32:04;;;;;;;30.00;12.05;;;;;;;2.36;68.29;98903.75;10417253;28;20049;-54
2021/01/02 05:37:08;;;;;;;30.23;11.80;;;;;;;2.35;68.11;98891.72;10418370;28;20056;-54
2021/01/02 05:42:11;;;;;;;26.02;11.52;;;;;;;2.26;68.17;98911.28;10417729;28;20057;-62
2021/01/02 05:47:19;;;;;;;29.15;11.25;;;;;;;2.23;68.82;98912.31;10416947;28;20388;-55
2021/01/02 05:52:32;;;;;;;31.67;12.30;;;;;;;2.25;68.52;98905.28;10418621;28;20050;-54
2021/01/02 05:57:33;;;;;;;27.65;11.70;;;;;;;2.21;68.86;98897.78;10417108;28;20045;-60
2021/01/02 06:02:37;;;;;;;28.30;12.60;;;;;;;2.26;68.53;98900.94;10418270;28;20054;-55
2021/01/02 06:07:41;;;;;;;31.17;11.27;;;;;;;2.27;68.41;98895.63;10418057;28;20466;-55
2021/01/02 06:12:43;;;;;;;35.20;14.55;;;;;;;2.24;68.70;98902.78;10418397;28;20056;-55
2021/01/02 06:17:46;;;;;;;31.75;14.18;;;;;;;2.21;68.53;98901.19;10425878;28;20367;-54
2021/01/02 06:22:49;;;;;;;31.73;14.37;;;;;;;2.20;68.76;98902.13;10424667;28;20057;-54
2021/01/02 06:27:51;;;;;;;32.47;14.33;;;;;;;2.27;68.80;98905.16;10424197;28;20042;-55
2021/01/02 06:32:52;;;;;;;33.72;13.80;;;;;;;2.18;68.60;98916.94;10424869;28;20046;-55
2021/01/02 06:38:13;;;;;;;30.40;12.50;;;;;;;2.16;68.95;98913.66;10424587;28;20492;-53
2021/01/02 06:43:17;;;;;;;34.20;13.75;;;;;;;2.15;69.06;98911.13;10426542;28;20112;-55
2021/01/02 06:48:32;;;;;;;;;;;;;;;2.18;69.36;98909.16;10426825;28;20064;-53
2021/01/02 06:53:37;;;;;;;34.75;11.93;;;;;;;2.20;69.10;98909.09;10423421;28;20495;-55
2021/01/02 06:58:42;;;;;;;33.95;13.95;;;;;;;2.12;68.92;98896.59;10423521;28;20148;-55
2021/01/02 07:03:46;;;;;;;54.47;18.45;;;;;;;2.17;69.06;98915.31;10423206;28;20099;-62
2021/01/02 07:08:50;;;;;;;38.20;17.23;;;;;;;2.20;69.22;98915.09;10422819;28;20049;-55
2021/01/02 07:14:24;;;;;;;35.85;15.93;;;;;;;2.25;69.14;98913.06;10424523;28;20045;-54
2021/01/02 07:19:43;;;;;;;26.10;11.80;;;;;;;2.34;69.04;98916.84;10422377;28;20154;-55
2021/01/02 07:24:48;;;;;;;29.77;12.75;;;;;;;2.44;69.12;98917.91;10421704;28;20045;-57
2021/01/02 07:29:51;;;;;;;35.63;14.75;;;;;;;2.54;69.01;98926.75;10421697;28;20049;-57
2021/01/02 07:34:55;;;;;;;37.80;16.87;;;;;;;2.56;68.86;98921.47;10421352;28;20049;-54
2021/01/02 07:39:58;;;;;;;;;;;;;;;2.64;69.65;98929.56;10422405;28;20049;-54
2021/01/02 07:45:02;;;;;;;33.38;15.38;;;;;;;2.73;68.95;98934.16;10421956;28;20288;-58
2021/01/02 07:50:09;;;;;;;32.40;15.02;;;;;;;2.79;69.17;98940.72;10421276;28;20056;-56
2021/01/02 07:55:13;;;;;;;37.17;15.60;;;;;;;2.79;69.02;98932.09;10422828;28;20178;-55
2021/01/02 08:00:16;;;;;;;39.92;15.15;;;;;;;2.79;69.05;98942.50;10437541;28;20378;-55
2021/01/02 08:05:19;;;;;;;33.67;14.38;;;;;;;2.82;68.68;98931.91;10421788;28;20049;-57
2021/01/02 08:10:21;;;;;;;34.43;14.67;;;;;;;2.84;68.75;98938.66;10436467;28;20045;-62
2021/01/02 08:15:27;;;;;;;27.92;13.07;;;;;;;2.91;68.75;98931.31;10420032;28;20055;-54
2021/01/02 08:20:28;;;;;;;30.38;14.40;;;;;;;2.96;68.40;98937.03;10421390;28;20049;-54
2021/01/02 08:25:31;;;;;;;35.97;15.52;;;;;;;3.09;68.58;98935.28;10435793;28;20069;-53
2021/01/02 08:30:33;;;;;;;35.08;14.25;;;;;;;3.17;68.71;98930.41;10420195;28;20056;-55
2021/01/02 08:35:37;;;;;;;38.15;15.63;;;;;;;3.17;69.29;98930.41;10418390;28;20049;-55
2021/01/02 08:40:41;;;;;;;33.33;14.25;;;;;;;3.34;69.16;98931.03;10419570;28;20053;-55
2021/01/02 08:45:43;;;;;;;32.30;15.13;;;;;;;3.42;68.91;98944.34;10419139;28;20053;-55
2021/01/02 08:50:44;;;;;;;34.40;16.02;;;;;;;3.41;68.93;98935.69;10419903;28;20049;-52
2021/01/02 08:55:47;;;;;;;35.28;16.40;;;;;;;3.51;68.91;98927.28;10423266;28;20153;-56
2021/01/02 09:00:49;;;;;;;35.22;15.55;;;;;;;3.68;68.24;98926.94;10418339;28;20068;-55
2021/01/02 09:05:50;;;;;;;37.15;15.82;;;;;;;3.75;68.07;98922.16;10417973;28;20056;-55
2021/01/02 09:10:57;;;;;;;36.70;14.98;;;;;;;3.76;67.84;98929.03;10418390;28;20060;-54
2021/01/02 09:16:00;;;;;;;38.50;16.30;;;;;;;3.60;67.63;98924.03;10419629;28;20045;-55
2021/01/02 09:21:20;;;;;;;38.37;16.63;;;;;;;3.57;68.68;98927.72;10418078;28;20045;-54
2021/01/02 09:26:25;;;;;;;36.35;15.38;;;;;;;3.50;68.85;98915.22;10417841;28;20072;-55
2021/01/02 09:31:28;;;;;;;34.75;13.65;;;;;;;3.44;69.55;98919.06;10418170;28;20045;-55
2021/01/02 09:36:29;;;;;;;35.08;13.88;;;;;;;3.28;69.77;98914.09;10420628;28;20080;-54
2021/01/02 09:41:32;;;;;;;40.58;17.48;;;;;;;3.23;70.61;98926.53;10417188;28;20103;-54
2021/01/02 09:46:34;;;;;;;37.00;16.10;;;;;;;3.34;70.21;98924.06;10416789;28;20048;-55
2021/01/02 09:51:35;;;;;;;44.13;16.88;;;;;;;3.23;70.44;98922.22;10417423;28;20061;-54
2021/01/02 09:56:44;;;;;;;48.72;17.83;;;;;;;3.15;70.67;98929.69;10416678;28;20045;-55
2021/01/02 10:01:51;;;;;;;36.03;14.38;;;;;;;3.06;71.25;98929.47;10416545;28;20076;-55
2021/01/02 10:06:53;;;;;;;53.15;20.70;;;;;;;3.01;71.50;98924.56;10416588;28;20041;-54
2021/01/02 10:11:55;;;;;;;42.17;16.25;;;;;;;2.92;70.81;98925.16;10416237;28;20501;-54
2021/01/02 10:16:57;;;;;;;52.53;21.23;;;;;;;2.89;71.28;98913.22;10416710;28;20075;-53
2021/01/02 10:21:59;;;;;;;51.95;17.73;;;;;;;2.88;71.73;98921.13;10416628;28;20136;-55
2021/01/02 10:27:02;;;;;;;42.58;18.33;;;;;;;2.92;71.51;98917.38;10416170;28;20060;-55
2021/01/02 10:32:05;;;;;;;46.20;18.83;;;;;;;3.03;72.02;98914.91;10431841;28;20124;-54
2021/01/02 10:37:07;;;;;;;43.05;17.52;;;;;;;3.13;71.95;98918.53;10417543;28;20073;-55
2021/01/02 10:42:11;;;;;;;43.25;18.52;;;;;;;3.23;71.44;98922.22;10432782;28;20045;-55
2021/01/02 10:47:15;;;;;;;44.22;19.85;;;;;;;3.40;71.34;98922.81;10416228;28;20037;-54
2021/01/02 10:52:19;;;;;;;43.13;19.45;;;;;;;3.48;71.39;98928.34;10415506;28;20141;-53
2021/01/02 10:57:25;;;;;;;37.38;16.55;;;;;;;3.58;71.08;98939.75;10416638;28;20045;-54
2021/01/02 11:02:26;;;;;;;39.97;15.90;;;;;;;3.62;70.97;98938.59;10422812;28;20395;-55
2021/01/02 11:07:28;;;;;;;42.17;18.10;;;;;;;3.57;71.07;98935.50;10423340;28;20482;-53
2021/01/02 11:12:30;;;;;;;38.88;16.95;;;;;;;3.50;70.71;98947.22;10423385;28;20045;-55
2021/01/02 11:17:32;;;;;;;47.53;18.35;;;;;;;3.39;70.58;98944.56;10422495;28;20103;-55
2021/01/02 11:22:34;;;;;;;42.60;18.25;;;;;;;3.35;70.78;98943.06;10423043;28;20054;-55
2021/01/02 11:27:36;;;;;;;45.83;18.40;;;;;;;3.41;70.92;98943.50;10422391;28;20052;-56
2021/01/02 11:32:38;;;;;;;44.17;17.67;;;;;;;3.45;70.90;98947.56;10423179;28;20067;-57
2021/01/02 11:37:39;;;;;;;43.10;17.40;;;;;;;3.38;71.34;98948.06;10437297;28;20139;-54
2021/01/02 11:42:42;;;;;;;44.38;19.25;;;;;;;3.34;71.05;98952.63;10421483;28;20054;-55
2021/01/02 11:47:43;;;;;;;55.40;20.08;;;;;;;3.35;71.46;98950.88;10421264;28;20049;-55
2021/01/02 11:52:45;;;;;;;53.72;18.23;;;;;;;3.27;71.86;98954.00;10421814;28;20056;-55
2021/01/02 11:57:48;;;;;;;52.53;19.92;;;;;;;3.30;71.43;98958.16;10421119;28;20490;-55
2021/01/02 12:02:49;;;;;;;40.42;17.65;;;;;;;3.26;71.56;98967.06;10422253;28;20387;-55
2021/01/02 12:07:51;;;;;;;58.83;20.77;;;;;;;3.21;71.50;98972.59;10420887;28;20049;-53
2021/01/02 12:12:53;;;;;;;57.70;20.67;;;;;;;3.10;71.57;98983.69;10419074;28;20057;-55
2021/01/02 12:17:55;;;;;;;50.65;19.67;;;;;;;3.13;72.32;98982.66;10419984;28;20046;-55
2021/01/02 12:22:57;;;;;;;52.95;22.27;;;;;;;3.24;72.12;98990.56;10436523;28;20474;-58
2021/01/02 12:27:59;;;;;;;56.72;19.52;;;;;;;3.28;71.96;98994.63;10419757;28;20579;-55
2021/01/02 12:33:01;;;;;;;47.90;19.33;;;;;;;3.34;72.03;98995.97;10419750;28;20057;-55
2021/01/02 12:38:02;;;;;;;45.30;19.08;;;;;;;3.36;72.14;98994.94;10419106;28;20060;-55
2021/01/02 12:43:05;;;;;;;54.40;20.60;;;;;;;3.35;71.49;99001.06;10421135;28;20045;-55
2021/01/02 12:48:07;;;;;;;48.55;18.58;;;;;;;3.41;71.90;98999.81;10418834;28;20049;-56
2021/01/02 12:53:09;;;;;;;52.63;19.33;;;;;;;3.50;71.97;99001.81;10434243;28;20053;-56
2021/01/02 12:58:11;;;;;;;48.42;19.33;;;;;;;3.56;71.37;99001.38;10418178;28;20144;-56
2021/01/02 13:03:13;;;;;;;50.00;19.33;;;;;;;3.54;71.91;98999.81;10418448;28;20064;-57
2021/01/02 13:08:15;;;;;;;53.55;20.02;;;;;;;3.49;71.90;99010.53;10418388;28;20049;-55
2021/01/02 13:13:17;;;;;;;54.13;22.52;;;;;;;3.41;71.76;99013.63;10418504;28;20119;-53
2021/01/02 13:18:19;;;;;;;61.88;22.77;;;;;;;3.38;72.05;99018.22;10418415;28;20057;-57
2021/01/02 13:23:21;;;;;;;58.63;20.50;;;;;;;3.39;71.75;99022.50;10419788;28;20110;-55
2021/01/02 13:28:23;;;;;;;59.10;21.42;;;;;;;3.43;71.86;99034.34;10418289;28;20049;-55
2021/01/02 13:33:25;;;;;;;55.65;21.63;;;;;;;3.46;71.59;99042.75;10420724;28;20041;-54
2021/01/02 13:38:27;;;;;;;54.30;21.55;;;;;;;3.59;71.78;99042.78;10418116;28;20493;-55
2021/01/02 13:43:29;;;;;;;57.90;20.15;;;;;;;3.62;71.50;99046.94;10417849;28;20545;-56
2021/01/02 13:48:31;;;;;;;51.35;20.30;;;;;;;3.60;71.60;99044.44;10416708;28;20474;-56
2021/01/02 13:53:32;;;;;;;67.93;18.90;;;;;;;3.66;71.68;99057.03;10417631;28;20045;-55
2021/01/02 13:58:35;;;;;;;52.13;20.85;;;;;;;3.78;71.47;99057.13;10417274;28;20057;-54
2021/01/02 14:03:37;;;;;;;43.67;18.90;;;;;;;3.83;71.65;99065.47;10416666;28;20049;-58
2021/01/02 14:08:42;;;;;;;42.97;17.63;;;;;;;3.80;71.58;99065.66;10416233;28;20084;-55
2021/01/02 14:13:44;;;;;;;43.40;18.05;;;;;;;3.78;71.83;99070.13;10416368;28;20045;-56
2021/01/02 14:18:46;;;;;;;40.33;16.15;;;;;;;3.83;72.06;99076.69;10417840;28;20486;-55
2021/01/02 14:23:48;;;;;;;43.30;16.58;;;;;;;3.88;71.58;99079.00;10416772;28;20049;-56
2021/01/02 14:28:52;;;;;;;37.83;16.15;;;;;;;3.95;71.45;99090.63;10416013;28;20045;-55
2021/01/02 14:33:53;;;;;;;;;;;;;;;4.05;71.34;99090.84;10418487;28;20067;-55
2021/01/02 14:38:54;;;;;;;43.05;18.17;;;;;;;4.18;70.87;99098.63;10425416;28;19925;-55
2021/01/02 14:43:57;;;;;;;38.33;15.50;;;;;;;4.23;70.36;99099.16;10423844;28;20080;-56
2021/01/02 14:48:59;;;;;;;28.27;13.63;;;;;;;4.34;70.42;99107.03;10424697;28;20053;-56
2021/01/02 14:54:01;;;;;;;34.40;13.75;;;;;;;4.36;70.42;99106.00;10423039;28;20052;-55
2021/01/02 14:59:03;;;;;;;32.53;13.05;;;;;;;4.48;70.14;99114.72;10423556;28;20437;-62
2021/01/02 15:04:05;;;;;;;31.03;13.60;;;;;;;4.64;69.78;99119.69;10440262;28;20045;-54
2021/01/02 15:09:07;;;;;;;32.08;13.05;;;;;;;4.69;69.04;99116.78;10439020;28;20053;-56
2021/01/02 15:14:10;;;;;;;27.10;12.25;;;;;;;4.77;69.22;99114.47;10422678;28;20053;-54
2021/01/02 15:19:13;;;;;;;30.67;12.75;;;;;;;4.84;69.22;99124.34;10422832;28;20076;-55
2021/01/02 15:24:15;;;;;;;29.90;11.60;;;;;;;4.84;69.16;99124.34;10423425;28;20057;-55
2021/01/02 15:29:17;;;;;;;25.95;11.93;;;;;;;4.86;68.94;99129.44;10421870;28;20099;-55
2021/01/02 15:34:22;;;;;;;24.65;10.60;;;;;;;4.86;69.36;99139.84;10422141;28;20049;-55
2021/01/02 15:39:26;;;;;;;26.40;11.93;;;;;;;4.86;69.46;99150.25;10422700;28;20462;-55
2021/01/02 15:44:31;;;;;;;20.38;9.80;;;;;;;4.89;68.71;99157.88;10421431;28;20073;-54
2021/01/02 15:49:32;;;;;;;24.38;9.35;;;;;;;4.87;69.10;99161.53;10421263;28;20107;-55
2021/01/02 15:54:34;;;;;;;22.20;8.15;;;;;;;4.86;69.53;99171.09;10421568;28;20060;-56
2021/01/02 15:59:37;;;;;;;19.92;7.93;;;;;;;4.88;69.50;99174.44;10436811;28;20061;-53
2021/01/02 16:04:39;;;;;;;13.65;7.28;;;;;;;4.93;69.40;99179.34;10421781;28;20053;-56
2021/01/02 16:09:43;;;;;;;19.08;7.78;;;;;;;4.86;68.92;99181.53;10420367;28;20378;-55
2021/01/02 16:14:45;;;;;;;17.35;8.23;;;;;;;4.86;69.68;99181.53;10420001;28;20123;-56
2021/01/02 16:19:47;;;;;;;15.25;6.65;;;;;;;4.79;69.30;99186.31;10421442;28;20402;-55
2021/01/02 16:24:48;;;;;;;14.32;6.47;;;;;;;4.80;69.88;99187.16;10435713;28;20126;-54
2021/01/02 16:29:51;;;;;;;15.35;6.90;;;;;;;4.75;69.25;99194.47;10435326;28;20132;-55
2021/01/02 16:34:53;;;;;;;14.02;6.18;;;;;;;4.72;68.98;99205.94;10419395;28;20056;-55
2021/01/02 16:39:56;;;;;;;10.93;6.13;;;;;;;4.61;69.31;99221.44;10419736;28;20052;-56
2021/01/02 16:44:59;;;;;;;;;;;;;;;4.59;70.09;99216.34;10418990;28;20060;-56
2021/01/02 16:50:00;;;;;;;11.48;5.22;;;;;;;4.46;69.79;99218.09;10418490;28;20441;-54
2021/01/02 16:55:03;;;;;;;11.00;4.50;;;;;;;4.44;69.44;99227.81;10418886;28;20449;-55
2021/01/02 17:00:08;;;;;;;11.03;5.00;;;;;;;4.45;69.54;99250.28;10418152;28;20054;-56
2021/01/02 17:05:11;;;;;;;11.35;4.18;;;;;;;4.56;69.27;99250.41;10418321;28;20068;-55
2021/01/02 17:10:13;;;;;;;11.20;4.22;;;;;;;4.52;69.80;99254.13;10418580;28;20045;-56
2021/01/02 17:15:17;;;;;;;12.38;6.03;;;;;;;4.49;69.81;99261.31;10418669;28;20072;-53
2021/01/02 17:20:19;;;;;;;9.80;4.32;;;;;;;4.46;70.07;99272.75;10419196;28;20077;-54
2021/01/02 17:25:21;;;;;;;9.07;3.85;;;;;;;4.49;69.56;99274.34;10417719;28;20046;-56
2021/01/02 17:30:24;;;;;;;8.23;3.90;;;;;;;4.50;69.23;99281.22;10432872;28;20418;-55
2021/01/02 17:35:26;;;;;;;8.15;3.83;;;;;;;4.44;70.04;99294.66;10418042;28;20045;-54
2021/01/02 17:40:28;;;;;;;7.82;4.45;;;;;;;4.36;69.77;99303.78;10417283;28;20049;-58
2021/01/02 17:45:31;;;;;;;9.03;3.93;;;;;;;4.36;70.00;99308.97;10417631;28;20057;-54
2021/01/02 17:50:35;;;;;;;6.85;3.05;;;;;;;4.28;69.73;99297.41;10417115;28;20106;-54
2021/01/02 17:55:37;;;;;;;5.63;3.10;;;;;;;4.24;69.67;99319.38;10416740;28;20042;-55
2021/01/02 18:00:39;;;;;;;7.95;3.45;;;;;;;4.19;69.71;99324.03;10417033;28;20057;-55
2021/01/02 18:05:41;;;;;;;7.38;3.03;;;;;;;4.15;69.45;99326.00;10417222;28;20053;-56
2021/01/02 18:10:43;;;;;;;7.40;3.63;;;;;;;4.17;69.47;99344.13;10422310;28;20056;-54
2021/01/02 18:15:47;;;;;;;8.18;3.53;;;;;;;4.13;69.67;99348.69;10425215;28;20057;-53
2021/01/02 18:20:49;;;;;;;7.13;3.35;;;;;;;4.19;70.12;99360.44;10424788;28;20045;-56
2021/01/02 18:25:50;;;;;;;6.07;2.78;;;;;;;4.27;69.92;99366.81;10425308;28;20136;-54
2021/01/02 18:30:53;;;;;;;7.20;3.08;;;;;;;4.36;69.66;99373.22;10425706;28;20053;-55
2021/01/02 18:35:55;;;;;;;6.03;2.40;;;;;;;4.42;69.73;99385.81;10424105;28;20068;-55
2021/01/02 18:40:57;;;;;;;9.23;3.30;;;;;;;4.34;69.95;99388.94;10424476;28;20287;-53
2021/01/02 18:45:59;;;;;;;6.32;2.67;;;;;;;4.34;69.42;99401.09;10425119;28;20053;-55
2021/01/02 18:51:01;;;;;;;9.05;2.90;;;;;;;4.32;69.86;99395.16;10423689;28;20111;-55
2021/01/02 18:56:02;;;;;;;6.63;2.80;;;;;;;4.28;69.50;99409.28;10423292;28;20049;-55
2021/01/02 19:01:05;;;;;;;5.78;2.50;;;;;;;4.29;69.96;99403.16;10422783;28;20049;-54
2021/01/02 19:06:12;;;;;;;5.97;2.47;;;;;;;4.33;69.60;99413.28;10423110;28;20060;-54
2021/01/02 19:11:19;;;;;;;5.35;2.42;;;;;;;4.33;69.42;99421.06;10424145;28;20037;-54
2021/01/02 19:16:24;;;;;;;6.60;3.17;;;;;;;4.25;69.77;99430.31;10423548;28;20059;-54
2021/01/02 19:21:35;;;;;;;5.50;2.47;;;;;;;4.37;69.91;99438.19;10422187;28;20394;-55
2021/01/02 19:26:37;;;;;;;5.88;2.58;;;;;;;4.42;69.60;99442.25;10438509;28;20068;-56
2021/01/02 19:31:41;;;;;;;6.53;2.42;;;;;;;4.48;69.18;99453.09;10421938;28;20101;-55
2021/01/02 19:36:47;;;;;;;6.20;2.38;;;;;;;4.38;69.24;99454.63;10422566;28;20136;-54
2021/01/02 19:41:51;;;;;;;6.90;2.63;;;;;;;4.40;69.49;99465.75;10422902;28;20103;-55
2021/01/02 19:46:54;;;;;;;7.15;2.50;;;;;;;4.37;69.03;99473.75;10421737;28;20386;-55
2021/01/02 19:51:55;;;;;;;9.93;3.30;;;;;;;4.48;69.47;99473.94;10421047;28;20414;-57
2021/01/02 19:56:59;;;;;;;5.93;2.45;;;;;;;4.59;69.05;99481.06;10436392;28;20474;-55
2021/01/02 20:02:01;;;;;;;13.02;2.97;;;;;;;4.53;69.08;99492.69;10420144;28;20475;-56
2021/01/02 20:07:06;;;;;;;6.35;3.05;;;;;;;4.45;69.33;99499.31;10420461;28;20045;-56
2021/01/02 20:12:08;;;;;;;6.32;2.75;;;;;;;4.47;69.26;99498.28;10436449;28;20118;-54
2021/01/02 20:17:11;;;;;;;5.72;2.60;;;;;;;4.48;69.37;99505.16;10421377;28;20364;-56
2021/01/02 20:22:12;;;;;;;6.78;2.83;;;;;;;4.43;68.75;99522.81;10421496;28;20049;-55
2021/01/02 20:27:15;;;;;;;5.80;2.83;;;;;;;4.49;69.23;99527.66;10419531;28;20087;-55
2021/01/02 20:32:20;;;;;;;6.78;2.97;;;;;;;4.58;68.92;99531.44;10418880;28;20086;-56
2021/01/02 20:37:23;;;;;;;5.63;2.45;;;;;;;4.67;69.09;99545.66;10419686;28;20045;-56
2021/01/02 20:42:24;;;;;;;6.15;2.38;;;;;;;4.64;68.74;99551.06;10420173;28;20057;-55
2021/01/02 20:47:27;;;;;;;6.47;2.80;;;;;;;4.57;68.88;99553.22;10436208;28;20037;-54
2021/01/02 20:52:28;;;;;;;6.47;2.80;;;;;;;4.62;69.16;99556.38;10418962;28;20057;-57
2021/01/02 20:57:30;;;;;;;5.53;2.47;;;;;;;4.59;68.84;99566.97;10418534;28;20049;-55
2021/01/02 21:02:33;;;;;;;6.13;2.83;;;;;;;4.54;68.49;99567.25;10419496;28;20048;-54
2021/01/02 21:07:34;;;;;;;5.32;2.30;;;;;;;4.57;68.78;99571.44;10418222;28;20045;-55
2021/01/02 21:12:36;;;;;;;11.35;2.53;;;;;;;4.65;68.71;99577.00;10418539;28;20140;-55
2021/01/02 21:17:39;;;;;;;5.93;2.45;;;;;;;4.63;68.27;99576.25;10419085;28;20049;-55
2021/01/02 21:22:40;;;;;;;6.55;2.60;;;;;;;4.60;68.53;99598.13;10417601;28;20474;-56
2021/01/02 21:27:42;;;;;;;7.25;2.40;;;;;;;4.72;68.96;99606.09;10417536;28;20053;-56
2021/01/02 21:32:44;;;;;;;6.13;2.85;;;;;;;4.68;68.56;99613.28;10417287;28;20045;-56
2021/01/02 21:37:46;;;;;;;5.68;2.42;;;;;;;4.66;68.88;99609.09;10417251;28;20495;-54
2021/01/02 21:42:48;;;;;;;5.97;2.03;;;;;;;4.73;68.44;99608.59;10416831;28;20045;-56
2021/01/02 21:47:51;;;;;;;5.80;2.45;;;;;;;4.79;68.34;99620.41;10416912;28;20122;-56
2021/01/02 21:52:53;;;;;;;7.13;2.40;;;;;;;4.76;68.50;99629.25;10434862;28;20351;-55
2021/01/02 21:57:54;;;;;;;6.28;2.58;;;;;;;4.80;68.80;99635.09;10417063;28;20065;-57
2021/01/02 22:02:57;;;;;;;7.10;3.30;;;;;;;4.85;68.10;99638.25;10417730;28;20055;-57
2021/01/02 22:07:58;;;;;;;5.05;2.35;;;;;;;4.85;68.33;99646.06;10417224;28;20045;-58
2021/01/02 22:13:01;;;;;;;7.25;2.65;;;;;;;4.75;68.03;99655.38;10419143;28;20107;-53
2021/01/02 22:18:03;;;;;;;6.90;2.42;;;;;;;4.72;68.48;99668.59;10417878;28;20061;-53
2021/01/02 22:23:05;;;;;;;5.20;2.17;;;;;;;4.69;68.79;99663.56;10417733;28;20399;-56
2021/01/02 22:28:06;;;;;;;5.97;2.40;;;;;;;4.80;68.26;99661.13;10417326;28;20045;-56
2021/01/02 22:33:09;;;;;;;6.68;2.25;;;;;;;4.78;68.32;99673.44;10432170;28;20502;-58
2021/01/02 22:38:10;;;;;;;6.38;2.28;;;;;;;4.73;68.72;99676.31;10416351;28;20477;-59
2021/01/02 22:43:12;;;;;;;4.75;2.03;;;;;;;4.75;67.98;99684.88;10416384;28;20449;-57
2021/01/02 22:48:15;;;;;;;4.80;2.10;;;;;;;4.74;68.08;99672.78;10416576;28;20041;-56
2021/01/02 22:53:16;;;;;;;6.35;2.60;;;;;;;4.72;68.59;99685.06;10416744;28;20046;-55
2021/01/02 22:58:18;;;;;;;4.90;1.98;;;;;;;4.80;68.76;99688.03;10423638;28;20490;-56
2021/01/02 23:03:20;;;;;;;5.82;2.58;;;;;;;4.75;68.59;99695.28;10424607;28;20406;-55
2021/01/02 23:08:22;;;;;;;5.70;2.63;;;;;;;4.72;68.64;99699.84;10422610;28;20042;-56
2021/01/02 23:13:24;;;;;;;4.75;1.90;;;;;;;4.60;68.81;99702.25;10438477;28;20049;-56
2021/01/02 23:18:26;;;;;;;4.63;1.85;;;;;;;4.70;68.61;99712.94;10439012;28;20045;-55
2021/01/02 23:23:29;;;;;;;4.60;2.10;;;;;;;4.79;68.59;99716.75;10424005;28;20473;-56
2021/01/02 23:28:30;;;;;;;5.25;2.33;;;;;;;4.86;68.22;99712.84;10422518;28;20057;-55
2021/01/02 23:33:33;;;;;;;5.82;1.85;;;;;;;4.70;68.23;99720.75;10422488;28;20059;-55